createdAt,value
2022-10-22T00:00:58.576Z,18.20
2022-10-22T00:03:26.475Z,18.20
2022-10-22T00:05:54.289Z,18.20
2022-10-22T00:08:22.763Z,18.10
2022-10-22T00:10:50.613Z,18.20
2022-10-22T00:13:18.431Z,18.10
2022-10-22T00:15:47.581Z,18.10
2022-10-22T00:18:15.610Z,18.10
2022-10-22T00:20:43.456Z,18.10
2022-10-22T00:23:11.267Z,18.10
2022-10-22T00:25:39.097Z,18.10
2022-10-22T00:28:07.089Z,18.10
2022-10-22T00:30:34.964Z,18.10
2022-10-22T00:33:04.280Z,18.10
2022-10-22T00:35:32.152Z,18.10
2022-10-22T00:37:59.972Z,18.10
2022-10-22T00:40:27.838Z,18.10
2022-10-22T00:42:55.883Z,18.10
2022-10-22T00:45:25.962Z,18.10
2022-10-22T00:48:00.658Z,18.20
2022-10-22T00:50:34.398Z,18.20
2022-10-22T00:53:05.299Z,18.10
2022-10-22T00:55:34.711Z,18.10
2022-10-22T00:58:03.336Z,18.10
2022-10-22T01:00:31.302Z,18.10
2022-10-22T01:02:59.564Z,18.10
2022-10-22T01:05:30.497Z,18.10
2022-10-22T01:07:58.598Z,18.10
2022-10-22T01:10:39.452Z,18.10
2022-10-22T01:13:19.217Z,18.10
2022-10-22T01:15:54.640Z,18.10
2022-10-22T01:18:28.591Z,18.10
2022-10-22T01:21:09.609Z,18.10
2022-10-22T01:24:07.004Z,18.10
2022-10-22T01:26:44.939Z,18.10
2022-10-22T01:29:18.085Z,18.00
2022-10-22T01:31:49.369Z,18.00
2022-10-22T01:34:19.529Z,18.00
2022-10-22T01:36:48.905Z,18.00
2022-10-22T01:39:18.129Z,18.00
2022-10-22T01:41:46.268Z,18.00
2022-10-22T01:44:32.940Z,18.00
2022-10-22T01:47:12.223Z,18.00
2022-10-22T01:49:52.460Z,18.00
2022-10-22T01:52:31.152Z,18.00
2022-10-22T01:55:08.442Z,18.00
2022-10-22T01:57:44.180Z,18.00
2022-10-22T02:00:15.782Z,18.00
2022-10-22T02:02:49.470Z,18.00
2022-10-22T02:05:23.448Z,18.00
2022-10-22T02:07:56.900Z,18.00
2022-10-22T02:10:25.893Z,18.00
2022-10-22T02:12:56.793Z,18.00
2022-10-22T02:15:28.256Z,18.00
2022-10-22T02:17:59.491Z,18.00
2022-10-22T02:20:29.616Z,18.00
2022-10-22T02:22:58.459Z,18.00
2022-10-22T02:25:30.396Z,18.00
2022-10-22T02:28:05.673Z,18.00
2022-10-22T02:30:36.874Z,18.00
2022-10-22T02:33:12.667Z,17.90
2022-10-22T02:35:42.484Z,18.00
2022-10-22T02:38:11.765Z,17.90
2022-10-22T02:40:40.040Z,17.90
2022-10-22T02:43:08.068Z,17.90
2022-10-22T02:45:37.839Z,17.90
2022-10-22T02:48:06.412Z,17.90
2022-10-22T02:50:34.327Z,17.90
2022-10-22T02:53:02.185Z,17.90
2022-10-22T02:55:29.994Z,17.90
2022-10-22T02:57:57.825Z,17.90
2022-10-22T03:00:25.689Z,17.90
2022-10-22T03:02:54.853Z,17.80
2022-10-22T03:05:22.712Z,17.80
2022-10-22T03:07:50.517Z,17.80
2022-10-22T03:10:18.448Z,17.80
2022-10-22T03:12:46.276Z,17.80
2022-10-22T03:15:14.417Z,17.80
2022-10-22T03:17:42.545Z,17.90
2022-10-22T03:20:12.161Z,17.80
2022-10-22T03:22:41.918Z,17.80
2022-10-22T03:25:15.141Z,17.80
2022-10-22T03:27:44.024Z,17.80
2022-10-22T03:30:13.829Z,17.80
2022-10-22T03:32:41.684Z,17.80
2022-10-22T03:35:11.155Z,17.80
2022-10-22T03:37:39.542Z,17.80
2022-10-22T03:40:11.408Z,17.80
2022-10-22T03:42:39.280Z,17.70
2022-10-22T03:45:08.589Z,17.70
2022-10-22T03:47:36.685Z,17.70
2022-10-22T03:50:05.125Z,17.70
2022-10-22T03:52:38.662Z,17.70
2022-10-22T03:55:07.839Z,17.70
2022-10-22T03:57:35.777Z,17.70
2022-10-22T04:00:05.478Z,17.60
2022-10-22T04:02:33.475Z,17.60
2022-10-22T04:05:01.388Z,17.60
2022-10-22T04:07:29.565Z,17.60
2022-10-22T04:09:58.713Z,17.50
2022-10-22T04:12:26.676Z,17.50
2022-10-22T04:14:54.473Z,17.50
2022-10-22T04:17:22.277Z,17.40
2022-10-22T04:19:50.122Z,17.40
2022-10-22T04:22:17.946Z,17.40
2022-10-22T04:24:45.756Z,17.40
2022-10-22T04:27:14.933Z,17.30
2022-10-22T04:29:42.774Z,17.30
2022-10-22T04:32:10.583Z,17.30
2022-10-22T04:34:38.405Z,17.20
2022-10-22T04:37:06.209Z,17.20
2022-10-22T04:39:34.045Z,17.20
2022-10-22T04:42:01.853Z,17.10
2022-10-22T04:44:31.124Z,17.10
2022-10-22T04:46:58.925Z,17.10
2022-10-22T04:49:26.878Z,17.10
2022-10-22T04:51:54.681Z,17.00
2022-10-22T04:54:23.210Z,17.00
2022-10-22T04:56:51.039Z,17.00
2022-10-22T04:59:18.833Z,17.00
2022-10-22T05:01:48.004Z,16.90
2022-10-22T05:04:19.558Z,16.90
2022-10-22T05:06:47.806Z,16.90
2022-10-22T05:09:17.654Z,16.90
2022-10-22T05:11:48.685Z,16.90
2022-10-22T05:14:18.425Z,16.80
2022-10-22T05:16:48.873Z,16.80
2022-10-22T05:19:20.703Z,16.80
2022-10-22T05:21:48.534Z,16.80
2022-10-22T05:24:16.443Z,16.80
2022-10-22T05:26:44.236Z,16.80
2022-10-22T05:29:12.050Z,16.80
2022-10-22T05:31:39.934Z,16.80
2022-10-22T05:34:09.110Z,16.80
2022-10-22T05:36:37.142Z,16.80
2022-10-22T05:39:05.348Z,16.80
2022-10-22T05:41:35.607Z,16.80
2022-10-22T05:44:03.850Z,16.80
2022-10-22T05:46:35.684Z,16.80
2022-10-22T05:49:05.430Z,16.80
2022-10-22T05:51:37.302Z,16.70
2022-10-22T05:54:07.434Z,16.80
2022-10-22T05:56:36.708Z,16.70
2022-10-22T05:59:04.883Z,16.80
2022-10-22T06:01:35.189Z,16.70
2022-10-22T06:04:05.373Z,16.80
2022-10-22T06:06:35.820Z,16.70
2022-10-22T06:09:08.631Z,16.70
2022-10-22T06:11:36.543Z,16.70
2022-10-22T06:14:04.686Z,16.70
2022-10-22T06:16:33.213Z,16.70
2022-10-22T06:19:01.913Z,16.70
2022-10-22T06:21:30.444Z,16.70
2022-10-22T06:24:00.241Z,16.60
2022-10-22T06:26:28.249Z,16.60
2022-10-22T06:28:56.708Z,16.60
2022-10-22T06:31:25.025Z,16.60
2022-10-22T06:33:53.134Z,16.60
2022-10-22T06:36:24.800Z,16.60
2022-10-22T06:38:53.338Z,16.60
2022-10-22T06:41:25.757Z,16.60
2022-10-22T06:43:57.846Z,16.60
2022-10-22T06:46:26.576Z,16.60
2022-10-22T06:48:56.253Z,16.60
2022-10-22T06:51:24.175Z,16.60
2022-10-22T06:53:52.182Z,16.60
2022-10-22T06:56:23.133Z,16.50
2022-10-22T06:58:53.163Z,16.50
2022-10-22T07:01:22.984Z,16.50
2022-10-22T07:03:51.698Z,16.50
2022-10-22T07:06:20.654Z,16.50
2022-10-22T07:08:48.869Z,16.50
2022-10-22T07:11:18.966Z,16.50
2022-10-22T07:13:49.071Z,16.50
2022-10-22T07:16:17.998Z,16.50
2022-10-22T07:18:47.104Z,16.50
2022-10-22T07:21:16.104Z,16.50
2022-10-22T07:23:44.604Z,16.50
2022-10-22T07:26:14.658Z,16.50
2022-10-22T07:28:44.589Z,16.50
2022-10-22T07:31:14.973Z,16.50
2022-10-22T07:33:42.951Z,16.50
2022-10-22T07:36:17.430Z,16.50
2022-10-22T07:38:46.055Z,16.50
2022-10-22T07:41:14.325Z,16.60
2022-10-22T07:43:42.189Z,16.60
2022-10-22T07:46:10.315Z,16.60
2022-10-22T07:48:39.560Z,16.60
2022-10-22T07:51:07.391Z,16.70
2022-10-22T07:53:35.507Z,16.70
2022-10-22T07:56:03.853Z,16.70
2022-10-22T07:58:31.906Z,16.80
2022-10-22T08:01:01.317Z,16.80
2022-10-22T08:03:29.629Z,16.80
2022-10-22T08:05:58.845Z,16.80
2022-10-22T08:08:30.784Z,16.90
2022-10-22T08:11:00.916Z,16.90
2022-10-22T08:13:30.401Z,16.90
2022-10-22T08:15:58.913Z,16.90
2022-10-22T08:18:27.024Z,17.00
2022-10-22T08:20:55.088Z,17.00
2022-10-22T08:23:26.182Z,17.00
2022-10-22T08:25:56.783Z,17.10
2022-10-22T08:28:24.636Z,17.10
2022-10-22T08:30:52.592Z,17.10
2022-10-22T08:33:20.470Z,17.20
2022-10-22T08:35:50.090Z,17.20
2022-10-22T08:38:18.288Z,17.20
2022-10-22T08:40:50.448Z,17.20
2022-10-22T08:43:52.828Z,17.30
2022-10-22T08:46:45.578Z,17.30
2022-10-22T08:49:19.685Z,17.30
2022-10-22T08:51:47.832Z,17.30
2022-10-22T08:54:24.781Z,17.30
2022-10-22T08:57:05.926Z,17.30
2022-10-22T08:59:42.371Z,17.30
2022-10-22T09:02:23.364Z,17.30
2022-10-22T09:05:00.155Z,17.30
2022-10-22T09:07:27.984Z,17.30
2022-10-22T09:09:58.224Z,17.30
2022-10-22T09:12:29.259Z,17.30
2022-10-22T09:14:57.415Z,17.30
2022-10-22T09:17:35.348Z,17.40
2022-10-22T09:20:10.864Z,17.40
2022-10-22T09:22:43.413Z,17.40
2022-10-22T09:25:23.773Z,17.40
2022-10-22T09:27:58.098Z,17.50
2022-10-22T09:30:28.448Z,17.50
2022-10-22T09:33:02.065Z,17.50
2022-10-22T09:35:34.282Z,17.50
2022-10-22T09:38:08.642Z,17.50
2022-10-22T09:40:44.222Z,17.50
2022-10-22T09:43:15.527Z,17.60
2022-10-22T09:45:44.542Z,17.60
2022-10-22T09:48:19.213Z,17.60
2022-10-22T09:50:49.382Z,17.60
2022-10-22T09:53:21.500Z,17.60
2022-10-22T09:58:29.135Z,17.60
2022-10-22T10:00:59.124Z,17.60
2022-10-22T10:03:29.435Z,17.70
2022-10-22T10:06:03.277Z,17.60
2022-10-22T10:08:34.398Z,17.70
2022-10-22T10:11:06.980Z,17.60
2022-10-22T10:13:44.497Z,17.70
2022-10-22T10:16:28.089Z,17.70
2022-10-22T10:19:24.204Z,17.70
2022-10-22T10:22:02.566Z,17.80
2022-10-22T10:24:42.366Z,17.90
2022-10-22T10:27:14.473Z,17.90
2022-10-22T10:29:54.210Z,18.00
2022-10-22T10:32:35.573Z,18.10
2022-10-22T10:35:16.782Z,18.10
2022-10-22T10:37:51.972Z,18.20
2022-10-22T10:40:28.247Z,18.40
2022-10-22T10:43:00.925Z,18.80
2022-10-22T10:45:37.797Z,19.50
2022-10-22T10:48:32.928Z,20.40
2022-10-22T10:51:08.616Z,21.50
2022-10-22T10:53:52.110Z,22.80
2022-10-22T10:56:34.422Z,24.30
2022-10-22T10:59:15.398Z,26.10
2022-10-22T11:01:56.890Z,27.80
2022-10-22T11:04:46.869Z,29.30
2022-10-22T11:07:33.569Z,30.90
2022-10-22T11:10:05.826Z,32.10
2022-10-22T11:12:37.912Z,33.10
2022-10-22T11:15:13.468Z,33.60
2022-10-22T11:17:46.494Z,34.80
2022-10-22T11:20:18.815Z,35.30
2022-10-22T11:23:13.536Z,35.60
2022-10-22T11:25:43.116Z,36.50
2022-10-22T11:30:56.059Z,38.00
2022-10-22T11:33:29.837Z,38.20
2022-10-22T11:36:00.425Z,38.40
2022-10-22T11:38:31.653Z,38.80
2022-10-22T11:41:06.266Z,39.30
2022-10-22T11:43:36.379Z,39.80
2022-10-22T11:46:25.916Z,40.30
2022-10-22T11:49:07.131Z,40.70
2022-10-22T11:51:37.030Z,41.30
2022-10-22T11:54:32.374Z,42.20
2022-10-22T11:57:19.292Z,42.70
2022-10-22T11:59:51.433Z,43.20
2022-10-22T12:04:57.578Z,44.10
2022-10-22T12:07:35.472Z,44.40
2022-10-22T12:10:07.324Z,44.70
2022-10-22T12:12:39.652Z,44.90
2022-10-22T12:15:24.764Z,45.20
2022-10-22T12:17:57.551Z,45.30
2022-10-22T12:20:27.232Z,45.30
2022-10-22T12:22:58.279Z,45.10
2022-10-22T12:25:35.488Z,44.40
2022-10-22T12:28:03.952Z,43.60
2022-10-22T12:30:35.419Z,42.40
2022-10-22T12:33:06.097Z,41.20
2022-10-22T12:35:43.244Z,39.90
2022-10-22T12:38:16.198Z,38.50
2022-10-22T12:40:47.505Z,37.20
2022-10-22T12:43:18.710Z,36.00
2022-10-22T12:45:48.512Z,34.80
2022-10-22T12:48:19.693Z,33.80
2022-10-22T12:50:52.016Z,32.90
2022-10-22T12:53:24.573Z,32.00
2022-10-22T12:55:54.793Z,31.30
2022-10-22T12:58:26.529Z,30.60
2022-10-22T13:01:00.677Z,30.10
2022-10-22T13:03:33.796Z,29.60
2022-10-22T13:06:15.170Z,29.00
2022-10-22T13:08:43.061Z,28.50
2022-10-22T13:11:13.210Z,28.00
2022-10-22T13:13:45.581Z,27.60
2022-10-22T13:16:20.004Z,27.20
2022-10-22T13:18:48.635Z,26.80
2022-10-22T13:21:28.245Z,26.40
2022-10-22T13:23:58.717Z,26.10
2022-10-22T13:26:33.164Z,25.80
2022-10-22T13:29:02.106Z,25.60
2022-10-22T13:31:33.480Z,25.40
2022-10-22T13:34:09.736Z,25.20
2022-10-22T13:36:41.055Z,25.10
2022-10-22T13:39:16.954Z,24.90
2022-10-22T13:41:44.770Z,24.80
2022-10-22T13:44:12.645Z,24.70
2022-10-22T13:46:42.862Z,24.60
2022-10-22T13:49:15.956Z,24.50
2022-10-22T13:51:45.661Z,24.40
2022-10-22T13:54:17.017Z,24.40
2022-10-22T13:56:44.831Z,24.30
2022-10-22T13:59:12.824Z,24.20
2022-10-22T14:01:40.928Z,24.20
2022-10-22T14:04:13.585Z,24.10
2022-10-22T14:06:41.540Z,24.00
2022-10-22T14:09:15.999Z,23.90
2022-10-22T14:11:44.052Z,23.80
2022-10-22T14:14:14.149Z,23.80
2022-10-22T14:16:42.388Z,23.70
2022-10-22T14:19:17.380Z,23.60
2022-10-22T14:21:45.363Z,23.50
2022-10-22T14:24:14.564Z,23.40
2022-10-22T14:26:42.377Z,23.30
2022-10-22T14:29:11.365Z,23.30
2022-10-22T14:34:16.233Z,23.20
2022-10-22T14:36:44.529Z,23.10
2022-10-22T14:39:14.340Z,23.00
2022-10-22T14:41:42.700Z,22.90
2022-10-22T14:44:12.724Z,22.80
2022-10-22T14:46:42.525Z,22.80
2022-10-22T14:49:10.350Z,22.70
2022-10-22T14:51:38.253Z,22.70
2022-10-22T14:54:06.153Z,22.60
2022-10-22T14:56:38.552Z,22.60
2022-10-22T14:59:06.580Z,22.60
2022-10-22T15:01:34.382Z,22.50
2022-10-22T15:04:02.181Z,22.50
2022-10-22T15:06:29.996Z,22.40
2022-10-22T15:08:58.026Z,22.40
2022-10-22T15:11:26.692Z,22.40
2022-10-22T15:13:55.833Z,22.30
2022-10-22T15:16:23.684Z,22.30
2022-10-22T15:18:53.012Z,22.20
2022-10-22T15:21:23.221Z,22.10
2022-10-22T15:23:51.430Z,22.10
2022-10-22T15:26:19.517Z,22.10
2022-10-22T15:28:47.414Z,22.00
2022-10-22T15:31:16.612Z,22.00
2022-10-22T15:33:44.591Z,21.90
2022-10-22T15:36:14.884Z,21.90
2022-10-22T15:38:42.802Z,21.90
2022-10-22T15:41:13.424Z,21.80
2022-10-22T15:43:41.997Z,21.70
2022-10-22T15:46:12.551Z,21.70
2022-10-22T15:48:42.258Z,21.60
2022-10-22T15:51:11.870Z,21.60
2022-10-22T15:53:40.217Z,21.50
2022-10-22T15:56:08.776Z,21.50
2022-10-22T15:58:36.683Z,21.40
2022-10-22T16:01:08.554Z,21.30
2022-10-22T16:03:36.664Z,21.20
2022-10-22T16:06:06.844Z,21.20
2022-10-22T16:08:34.919Z,21.00
2022-10-22T16:11:02.810Z,21.00
2022-10-22T16:13:31.081Z,20.80
2022-10-22T16:15:58.886Z,20.70
2022-10-22T16:18:26.662Z,20.60
2022-10-22T16:20:54.469Z,20.30
2022-10-22T16:23:24.377Z,20.30
2022-10-22T16:25:52.260Z,20.10
2022-10-22T16:28:20.158Z,20.00
2022-10-22T16:30:48.042Z,19.90
2022-10-22T16:33:15.858Z,19.80
2022-10-22T16:35:43.833Z,19.70
2022-10-22T16:38:12.270Z,19.50
2022-10-22T16:40:42.096Z,19.40
2022-10-22T16:43:09.921Z,19.30
2022-10-22T16:45:37.740Z,19.20
2022-10-22T16:48:05.806Z,19.10
2022-10-22T16:50:33.629Z,19.00
2022-10-22T16:53:01.412Z,18.90
2022-10-22T16:55:29.218Z,18.70
2022-10-22T16:57:58.367Z,18.70
2022-10-22T17:00:26.238Z,18.50
2022-10-22T17:02:54.709Z,18.40
2022-10-22T17:05:23.156Z,18.40
2022-10-22T17:07:51.480Z,18.30
2022-10-22T17:10:20.262Z,18.20
2022-10-22T17:12:48.930Z,18.10
2022-10-22T17:15:18.241Z,18.00
2022-10-22T17:17:48.425Z,17.90
2022-10-22T17:20:16.306Z,17.90
2022-10-22T17:22:44.256Z,17.80
2022-10-22T17:25:15.394Z,17.70
2022-10-22T17:27:44.710Z,17.70
2022-10-22T17:30:17.472Z,17.60
2022-10-22T17:32:46.726Z,17.50
2022-10-22T17:35:16.190Z,17.40
2022-10-22T17:37:44.293Z,17.30
2022-10-22T17:40:14.375Z,17.20
2022-10-22T17:42:42.415Z,17.20
2022-10-22T17:45:10.688Z,17.10
2022-10-22T17:47:38.611Z,17.10
2022-10-22T17:50:09.325Z,17.00
2022-10-22T17:52:37.420Z,17.00
2022-10-22T17:55:05.699Z,16.90
2022-10-22T17:57:33.506Z,16.90
2022-10-22T18:00:01.337Z,16.80
2022-10-22T18:02:30.294Z,16.80
2022-10-22T18:04:58.105Z,16.80
2022-10-22T18:07:27.292Z,16.70
2022-10-22T18:09:55.125Z,16.70
2022-10-22T18:12:22.929Z,16.70
2022-10-22T18:14:50.722Z,16.60
2022-10-22T18:17:18.533Z,16.60
2022-10-22T18:19:46.336Z,16.50
2022-10-22T18:22:14.150Z,16.50
2022-10-22T18:24:43.429Z,16.40
2022-10-22T18:27:11.749Z,16.40
2022-10-22T18:29:40.044Z,16.30
2022-10-22T18:32:13.002Z,16.30
2022-10-22T18:34:41.264Z,16.20
2022-10-22T18:37:09.069Z,16.10
2022-10-22T18:39:36.893Z,16.10
2022-10-22T18:42:07.143Z,16.00
2022-10-22T18:44:35.669Z,16.00
2022-10-22T18:47:03.511Z,15.90
2022-10-22T18:49:31.350Z,15.90
2022-10-22T18:51:59.148Z,15.80
2022-10-22T18:54:27.156Z,15.80
2022-10-22T18:56:59.384Z,15.70
2022-10-22T18:59:31.829Z,15.70
2022-10-22T19:01:59.966Z,15.70
2022-10-22T19:04:32.921Z,15.60
2022-10-22T19:07:01.130Z,15.60
2022-10-22T19:09:29.040Z,15.60
2022-10-22T19:11:57.084Z,15.50
2022-10-22T19:14:24.921Z,15.50
2022-10-22T19:16:54.415Z,15.50
2022-10-22T19:19:24.305Z,15.50
2022-10-22T19:21:52.547Z,15.40
2022-10-22T19:24:21.607Z,15.40
2022-10-22T19:26:50.938Z,15.40
2022-10-22T19:29:20.329Z,15.40
2022-10-22T19:31:50.852Z,15.30
2022-10-22T19:34:21.067Z,15.30
2022-10-22T19:36:51.507Z,15.30
2022-10-22T19:39:19.693Z,15.30
2022-10-22T19:41:47.633Z,15.20
2022-10-22T19:44:15.736Z,15.20
2022-10-22T19:46:43.597Z,15.20
2022-10-22T19:49:12.366Z,15.20
2022-10-22T19:51:41.600Z,15.20
2022-10-22T19:54:18.277Z,15.10
2022-10-22T19:56:47.470Z,15.10
2022-10-22T19:59:15.933Z,15.10
2022-10-22T20:01:44.314Z,15.10
2022-10-22T20:04:16.539Z,15.00
2022-10-22T20:06:46.108Z,15.00
2022-10-22T20:09:14.213Z,15.00
2022-10-22T20:11:42.292Z,15.00
2022-10-22T20:14:10.086Z,15.00
2022-10-22T20:16:38.276Z,14.90
2022-10-22T20:19:08.577Z,15.00
2022-10-22T20:21:37.309Z,15.00
2022-10-22T20:24:06.914Z,14.90
2022-10-22T20:26:35.394Z,14.90
2022-10-22T20:29:03.208Z,14.90
2022-10-22T20:31:32.761Z,14.80
2022-10-22T20:34:02.171Z,14.80
2022-10-22T20:36:31.563Z,14.80
2022-10-22T20:39:02.192Z,14.80
2022-10-22T20:41:31.710Z,14.70
2022-10-22T20:43:59.501Z,14.70
2022-10-22T20:46:30.131Z,14.70
2022-10-22T20:49:01.155Z,14.60
2022-10-22T20:51:29.335Z,14.60
2022-10-22T20:53:57.518Z,14.50
2022-10-22T20:56:25.704Z,14.50
2022-10-22T20:59:04.191Z,14.50
2022-10-22T21:01:34.143Z,14.50
2022-10-22T21:04:02.190Z,14.50
2022-10-22T21:06:30.390Z,14.50
2022-10-22T21:08:58.276Z,14.50
2022-10-22T21:11:26.145Z,14.50
2022-10-22T21:13:55.322Z,14.50
2022-10-22T21:16:23.252Z,14.50
2022-10-22T21:18:51.158Z,14.50
2022-10-22T21:21:19.873Z,14.50
2022-10-22T21:23:47.926Z,14.50
2022-10-22T21:26:15.728Z,14.60
2022-10-22T21:28:43.593Z,14.60
2022-10-22T21:31:18.687Z,14.60
2022-10-22T21:33:46.532Z,14.60
2022-10-22T21:36:15.556Z,14.60
2022-10-22T21:38:44.877Z,14.60
2022-10-22T21:41:15.897Z,14.60
2022-10-22T21:43:45.262Z,14.60
2022-10-22T21:46:16.333Z,14.60
2022-10-22T21:48:44.758Z,14.60
2022-10-22T21:51:14.940Z,14.60
2022-10-22T21:53:43.716Z,14.60
2022-10-22T21:56:16.384Z,14.50
2022-10-22T21:58:44.319Z,14.60
2022-10-22T22:01:14.558Z,14.60
2022-10-22T22:03:43.619Z,14.50
2022-10-22T22:06:11.711Z,14.50
2022-10-22T22:08:39.985Z,14.50
2022-10-22T22:11:10.494Z,14.50
2022-10-22T22:13:38.806Z,14.50
2022-10-22T22:16:09.142Z,14.50
2022-10-22T22:18:39.385Z,14.50
2022-10-22T22:21:09.104Z,14.50
2022-10-22T22:23:38.491Z,14.40
2022-10-22T22:26:07.289Z,14.40
2022-10-22T22:28:35.589Z,14.40
2022-10-22T22:31:14.344Z,14.30
2022-10-22T22:33:43.676Z,14.30
2022-10-22T22:36:12.021Z,14.30
2022-10-22T22:38:40.157Z,14.20
2022-10-22T22:41:08.927Z,14.20
2022-10-22T22:43:38.577Z,14.20
2022-10-22T22:46:08.183Z,14.20
2022-10-22T22:48:36.161Z,14.20
2022-10-22T22:51:07.249Z,14.10
2022-10-22T22:53:35.929Z,14.20
2022-10-22T22:56:08.697Z,14.10
2022-10-22T22:58:37.857Z,14.10
2022-10-22T23:01:14.446Z,14.10
2022-10-22T23:03:43.277Z,14.00
2022-10-22T23:06:13.116Z,14.00
2022-10-22T23:08:41.372Z,14.00
2022-10-22T23:11:11.762Z,13.90
2022-10-22T23:13:40.186Z,13.90
2022-10-22T23:16:09.501Z,13.90
2022-10-22T23:18:37.601Z,13.90
2022-10-22T23:21:06.654Z,13.90
2022-10-22T23:23:35.908Z,13.90
2022-10-22T23:26:04.125Z,13.90
2022-10-22T23:28:31.956Z,13.90
2022-10-22T23:30:59.763Z,13.90
2022-10-22T23:33:27.876Z,13.80
2022-10-22T23:35:55.677Z,13.80
2022-10-22T23:38:23.521Z,13.80
2022-10-22T23:40:57.357Z,13.80
2022-10-22T23:43:26.113Z,13.80
2022-10-22T23:45:54.318Z,13.80
2022-10-22T23:48:22.180Z,13.80
2022-10-22T23:50:50.242Z,13.70
2022-10-22T23:53:18.169Z,13.70
2022-10-22T23:55:46.421Z,13.70
2022-10-22T23:58:15.564Z,13.60
